createdAt,value
2022-11-19T00:00:13.360Z,13.36
2022-11-19T00:01:46.093Z,13.33
2022-11-19T00:03:19.512Z,13.34
2022-11-19T00:04:53.416Z,13.32
2022-11-19T00:06:28.295Z,13.32
2022-11-19T00:08:00.161Z,13.29
2022-11-19T00:09:32.037Z,13.28
2022-11-19T00:11:09.296Z,13.27
2022-11-19T00:14:14.144Z,13.23
2022-11-19T00:15:46.114Z,13.23
2022-11-19T00:17:17.966Z,13.21
2022-11-19T00:18:49.847Z,13.20
2022-11-19T00:20:21.802Z,13.18
2022-11-19T00:21:53.651Z,13.15
2022-11-19T00:23:25.460Z,13.18
2022-11-19T00:24:57.321Z,13.16
2022-11-19T00:26:29.300Z,13.13
2022-11-19T00:28:01.092Z,13.11
2022-11-19T00:29:32.975Z,13.11
2022-11-19T00:31:09.703Z,13.10
2022-11-19T00:32:41.699Z,13.13
2022-11-19T00:34:13.729Z,13.10
2022-11-19T00:35:45.591Z,13.08
2022-11-19T00:37:17.459Z,13.08
2022-11-19T00:38:49.361Z,13.07
2022-11-19T00:40:21.207Z,13.07
2022-11-19T00:41:53.112Z,13.08
2022-11-19T00:43:43.498Z,13.08
2022-11-19T00:45:15.455Z,13.05
2022-11-19T00:46:47.338Z,13.03
2022-11-19T00:48:19.280Z,13.00
2022-11-19T00:49:51.179Z,12.99
2022-11-19T00:51:23.450Z,13.01
2022-11-19T00:52:55.306Z,13.03
2022-11-19T00:54:27.181Z,13.05
2022-11-19T00:56:02.730Z,13.05
2022-11-19T00:57:34.694Z,13.02
2022-11-19T00:59:06.567Z,13.01
2022-11-19T01:00:39.325Z,13.01
2022-11-19T01:02:11.711Z,13.00
2022-11-19T01:03:45.701Z,12.99
2022-11-19T01:05:17.594Z,12.98
2022-11-19T01:06:49.464Z,12.97
2022-11-19T01:08:21.336Z,12.99
2022-11-19T01:09:53.280Z,12.98
2022-11-19T01:11:28.374Z,12.98
2022-11-19T01:13:18.661Z,12.98
2022-11-19T01:14:50.581Z,12.98
2022-11-19T01:16:26.694Z,12.98
2022-11-19T01:19:30.314Z,12.99
2022-11-19T01:21:02.288Z,12.98
2022-11-19T01:22:34.178Z,13.00
2022-11-19T01:24:06.202Z,12.99
2022-11-19T01:25:38.136Z,12.99
2022-11-19T01:27:09.979Z,12.98
2022-11-19T01:28:42.305Z,12.97
2022-11-19T01:30:14.323Z,12.96
2022-11-19T01:31:46.143Z,12.94
2022-11-19T01:33:18.221Z,12.93
2022-11-19T01:34:50.707Z,12.92
2022-11-19T01:36:23.790Z,12.90
2022-11-19T01:37:55.758Z,12.88
2022-11-19T01:39:27.700Z,12.87
2022-11-19T01:40:59.618Z,12.88
2022-11-19T01:42:51.279Z,12.87
2022-11-19T01:44:41.927Z,12.86
2022-11-19T01:46:14.967Z,12.85
2022-11-19T01:47:49.155Z,12.85
2022-11-19T01:49:21.336Z,12.84
2022-11-19T01:50:54.763Z,12.84
2022-11-19T01:53:59.292Z,12.83
2022-11-19T01:55:31.407Z,12.83
2022-11-19T01:57:04.358Z,12.84
2022-11-19T01:58:39.756Z,12.84
2022-11-19T02:00:11.901Z,12.83
2022-11-19T02:01:44.697Z,12.83
2022-11-19T02:03:17.203Z,12.82
2022-11-19T02:04:51.974Z,12.81
2022-11-19T02:06:23.805Z,12.80
2022-11-19T02:07:57.164Z,12.76
2022-11-19T02:09:28.976Z,12.73
2022-11-19T02:11:21.087Z,12.70
2022-11-19T02:13:19.083Z,12.67
2022-11-19T02:14:54.895Z,12.63
2022-11-19T02:16:29.114Z,12.60
2022-11-19T02:18:12.986Z,12.57
2022-11-19T02:20:04.035Z,12.53
2022-11-19T02:23:29.821Z,12.49
2022-11-19T02:25:20.243Z,12.46
2022-11-19T02:26:52.267Z,12.45
2022-11-19T02:28:42.775Z,12.45
2022-11-19T02:30:16.899Z,12.45
2022-11-19T03:26:37.612Z,11.92
2022-11-19T03:28:10.816Z,11.94
2022-11-19T03:29:43.783Z,11.93
2022-11-19T03:31:15.586Z,11.92
2022-11-19T03:32:51.951Z,11.93
2022-11-19T03:34:23.846Z,11.94
2022-11-19T03:35:58.444Z,11.95
2022-11-19T03:37:30.938Z,11.95
2022-11-19T03:39:04.688Z,11.96
2022-11-19T03:40:36.571Z,11.94
2022-11-19T03:42:09.774Z,11.95
2022-11-19T03:43:42.008Z,11.95
2022-11-19T03:45:15.122Z,11.93
2022-11-19T03:46:47.242Z,11.93
2022-11-19T03:48:19.154Z,11.88
2022-11-19T03:49:52.631Z,11.84
2022-11-19T03:51:36.361Z,11.82
2022-11-19T03:53:08.179Z,11.82
2022-11-19T03:54:41.397Z,11.77
2022-11-19T03:56:14.049Z,11.73
2022-11-19T03:57:45.847Z,11.70
2022-11-19T03:59:18.111Z,11.71
2022-11-19T04:00:50.269Z,11.69
2022-11-19T04:02:22.367Z,11.67
2022-11-19T04:04:12.573Z,11.67
2022-11-19T04:05:44.414Z,11.67
2022-11-19T04:07:17.934Z,11.66
2022-11-19T04:08:49.876Z,11.66
2022-11-19T04:10:21.805Z,11.64
2022-11-19T04:13:24.134Z,11.68
2022-11-19T04:14:56.046Z,11.66
2022-11-19T04:16:28.055Z,11.62
2022-11-19T04:18:02.163Z,11.61
2022-11-19T04:19:34.117Z,11.59
2022-11-19T04:21:06.052Z,11.59
2022-11-19T04:22:40.745Z,11.59
2022-11-19T04:24:13.473Z,11.55
2022-11-19T04:25:48.394Z,11.53
2022-11-19T04:27:20.246Z,11.47
2022-11-19T04:28:52.133Z,11.45
2022-11-19T04:30:24.193Z,11.41
2022-11-19T04:31:56.305Z,11.35
2022-11-19T04:33:28.180Z,11.29
2022-11-19T04:34:59.980Z,11.27
2022-11-19T04:36:31.880Z,11.26
2022-11-19T04:38:03.936Z,11.25
2022-11-19T04:39:35.748Z,11.24
2022-11-19T04:41:07.686Z,11.22
2022-11-19T04:42:39.569Z,11.20
2022-11-19T04:44:11.429Z,11.23
2022-11-19T04:45:43.234Z,11.24
2022-11-19T04:47:15.211Z,11.25
2022-11-19T04:48:47.164Z,11.27
2022-11-19T04:50:19.231Z,11.28
2022-11-19T04:51:51.083Z,11.31
2022-11-19T04:53:23.001Z,11.32
2022-11-19T04:56:26.676Z,11.36
2022-11-19T04:57:58.643Z,11.37
2022-11-19T04:59:30.473Z,11.36
2022-11-19T05:01:02.357Z,11.35
2022-11-19T05:02:34.214Z,11.35
2022-11-19T05:04:06.236Z,11.34
2022-11-19T05:05:38.205Z,11.30
2022-11-19T05:07:10.359Z,11.29
2022-11-19T05:08:42.518Z,11.29
2022-11-19T05:10:14.414Z,11.25
2022-11-19T05:11:46.294Z,11.24
2022-11-19T05:13:18.277Z,11.24
2022-11-19T05:14:51.531Z,11.23
2022-11-19T05:16:23.433Z,11.23
2022-11-19T05:17:55.363Z,11.25
2022-11-19T05:19:27.280Z,11.26
2022-11-19T05:20:59.158Z,11.26
2022-11-19T05:22:31.243Z,11.23
2022-11-19T05:24:03.172Z,11.24
2022-11-19T05:25:35.099Z,11.24
2022-11-19T05:27:06.960Z,11.25
2022-11-19T05:28:39.999Z,11.23
2022-11-19T05:30:15.141Z,11.25
2022-11-19T05:31:47.051Z,11.26
2022-11-19T05:33:20.074Z,11.27
2022-11-19T05:34:52.106Z,11.26
2022-11-19T05:36:24.008Z,11.27
2022-11-19T05:37:56.031Z,11.25
2022-11-19T05:39:28.489Z,11.23
2022-11-19T05:41:00.668Z,11.23
2022-11-19T05:42:32.514Z,11.25
2022-11-19T05:44:04.536Z,11.26
2022-11-19T05:45:36.622Z,11.28
2022-11-19T05:47:08.515Z,11.30
2022-11-19T05:48:40.636Z,11.32
2022-11-19T05:50:14.617Z,11.35
2022-11-19T05:51:46.978Z,11.37
2022-11-19T05:53:18.852Z,11.39
2022-11-19T05:54:50.783Z,11.40
2022-11-19T05:56:22.705Z,11.42
2022-11-19T05:57:54.605Z,11.43
2022-11-19T05:59:26.606Z,11.45
2022-11-19T06:00:59.272Z,11.46
2022-11-19T06:02:31.465Z,11.49
2022-11-19T06:04:03.532Z,11.49
2022-11-19T06:05:40.093Z,11.49
2022-11-19T06:07:12.624Z,11.50
2022-11-19T06:08:44.553Z,11.52
2022-11-19T06:10:16.822Z,11.52
2022-11-19T06:11:48.866Z,11.53
2022-11-19T06:13:20.786Z,11.53
2022-11-19T06:14:52.713Z,11.54
2022-11-19T06:16:24.631Z,11.54
2022-11-19T06:17:57.137Z,11.58
2022-11-19T06:19:29.126Z,11.61
2022-11-19T06:21:01.192Z,11.63
2022-11-19T06:22:33.117Z,11.64
2022-11-19T06:24:05.705Z,11.65
2022-11-19T06:25:37.613Z,11.66
2022-11-19T06:27:09.467Z,11.69
2022-11-19T06:28:41.307Z,11.71
2022-11-19T06:30:13.984Z,11.74
2022-11-19T06:31:46.226Z,11.78
2022-11-19T06:33:18.079Z,11.80
2022-11-19T06:34:50.086Z,11.81
2022-11-19T06:36:22.232Z,11.83
2022-11-19T06:37:54.289Z,11.85
2022-11-19T06:39:26.331Z,11.89
2022-11-19T06:40:58.232Z,11.91
2022-11-19T06:42:39.219Z,11.94
2022-11-19T06:44:11.103Z,11.98
2022-11-19T06:45:43.195Z,12.00
2022-11-19T06:47:15.070Z,12.01
2022-11-19T06:48:46.986Z,12.05
2022-11-19T06:50:18.986Z,12.09
2022-11-19T06:51:50.954Z,12.12
2022-11-19T06:53:23.121Z,12.16
2022-11-19T06:54:54.965Z,12.19
2022-11-19T06:56:26.978Z,12.23
2022-11-19T06:58:02.058Z,12.26
2022-11-19T06:59:35.368Z,12.30
2022-11-19T07:01:07.460Z,12.35
2022-11-19T07:02:39.486Z,12.39
2022-11-19T07:04:11.477Z,12.42
2022-11-19T07:05:43.485Z,12.44
2022-11-19T07:07:15.510Z,12.45
2022-11-19T07:08:47.557Z,12.49
2022-11-19T07:10:19.769Z,12.53
2022-11-19T07:11:51.767Z,12.57
2022-11-19T07:13:23.765Z,12.59
2022-11-19T07:14:59.721Z,12.61
2022-11-19T07:16:35.645Z,12.59
2022-11-19T07:18:07.581Z,12.62
2022-11-19T07:19:39.550Z,12.65
2022-11-19T07:21:11.457Z,12.64
2022-11-19T07:24:18.101Z,12.63
2022-11-19T07:25:50.169Z,12.65
2022-11-19T07:27:22.122Z,12.68
2022-11-19T07:28:54.332Z,12.72
2022-11-19T07:30:26.388Z,12.78
2022-11-19T07:31:58.626Z,12.79
2022-11-19T07:33:30.625Z,12.84
2022-11-19T07:35:02.871Z,12.84
2022-11-19T07:36:35.188Z,12.89
2022-11-19T07:38:07.552Z,12.90
2022-11-19T07:39:39.458Z,12.89
2022-11-19T07:41:30.493Z,12.94
2022-11-19T07:43:02.843Z,12.99
2022-11-19T07:44:34.929Z,13.01
2022-11-19T07:46:07.452Z,13.02
2022-11-19T07:47:39.939Z,13.04
2022-11-19T07:49:11.960Z,13.03
2022-11-19T07:50:55.148Z,13.05
2022-11-19T07:52:31.238Z,13.04
2022-11-19T07:54:03.481Z,13.09
2022-11-19T07:55:35.505Z,13.12
2022-11-19T07:57:07.664Z,13.16
2022-11-19T08:00:15.137Z,13.23
2022-11-19T08:01:47.110Z,13.25
2022-11-19T08:03:19.885Z,13.30
2022-11-19T08:04:52.062Z,13.31
2022-11-19T08:06:26.645Z,13.34
2022-11-19T08:07:59.127Z,13.37
2022-11-19T08:09:31.322Z,13.42
2022-11-19T08:11:04.420Z,13.45
2022-11-19T08:12:36.858Z,13.47
2022-11-19T08:14:09.246Z,13.50
2022-11-19T08:15:41.454Z,13.53
2022-11-19T08:17:31.997Z,13.55
2022-11-19T08:19:08.273Z,13.57
2022-11-19T08:20:40.931Z,13.55
2022-11-19T08:22:12.972Z,13.57
2022-11-19T08:23:44.902Z,13.59
2022-11-19T08:25:16.729Z,13.65
2022-11-19T08:28:35.380Z,13.64
2022-11-19T08:30:08.855Z,13.67
2022-11-19T08:31:41.837Z,13.69
2022-11-19T08:33:13.974Z,13.70
2022-11-19T08:34:45.979Z,13.73
2022-11-19T08:36:18.185Z,13.62
2022-11-19T08:37:50.676Z,13.63
2022-11-19T08:39:22.712Z,13.65
2022-11-19T08:41:17.285Z,13.62
2022-11-19T08:43:02.024Z,13.56
2022-11-19T08:44:34.083Z,13.60
2022-11-19T08:46:06.032Z,13.64
2022-11-19T08:47:38.155Z,13.68
2022-11-19T08:49:10.528Z,13.70
2022-11-19T08:50:42.692Z,13.72
2022-11-19T08:52:14.734Z,13.75
2022-11-19T08:53:47.281Z,13.76
2022-11-19T08:55:19.353Z,13.77
2022-11-19T08:58:24.773Z,13.79
2022-11-19T08:59:59.120Z,13.80
2022-11-19T09:01:35.147Z,13.81
2022-11-19T09:03:07.309Z,13.84
2022-11-19T09:04:39.357Z,13.86
2022-11-19T09:06:11.506Z,13.87
2022-11-19T09:07:43.685Z,13.85
2022-11-19T09:09:16.045Z,13.86
2022-11-19T09:10:49.073Z,13.89
2022-11-19T09:12:21.203Z,13.93
2022-11-19T09:13:53.170Z,13.96
2022-11-19T09:15:25.231Z,14.03
2022-11-19T09:16:57.251Z,14.10
2022-11-19T09:18:29.576Z,14.16
2022-11-19T09:20:01.704Z,14.18
2022-11-19T09:21:33.850Z,14.19
2022-11-19T09:23:05.884Z,14.20
2022-11-19T09:24:37.908Z,14.27
2022-11-19T09:26:12.470Z,14.24
2022-11-19T09:27:44.708Z,14.31
2022-11-19T09:29:16.876Z,14.37
2022-11-19T09:31:04.468Z,14.43
2022-11-19T09:32:39.700Z,14.45
2022-11-19T09:34:11.910Z,14.49
2022-11-19T09:35:44.029Z,14.51
2022-11-19T09:37:16.230Z,14.53
2022-11-19T09:38:48.770Z,14.58
2022-11-19T09:40:21.756Z,14.59
2022-11-19T09:42:12.538Z,14.59
2022-11-19T09:43:47.776Z,14.61
2022-11-19T09:45:20.086Z,14.67
2022-11-19T09:47:18.271Z,14.65
2022-11-19T09:48:50.910Z,14.66
2022-11-19T09:50:23.695Z,14.73
2022-11-19T09:51:57.700Z,14.78
2022-11-19T09:53:32.481Z,14.82
2022-11-19T09:55:04.721Z,14.83
2022-11-19T09:56:38.074Z,14.88
2022-11-19T09:58:15.258Z,14.89
2022-11-19T09:59:47.307Z,14.91
2022-11-19T10:01:19.694Z,14.89
2022-11-19T10:02:52.292Z,14.92
2022-11-19T10:04:25.826Z,14.92
2022-11-19T10:06:18.407Z,14.95
2022-11-19T10:07:53.632Z,14.95
2022-11-19T10:09:54.854Z,14.98
2022-11-19T10:11:31.900Z,15.00
2022-11-19T10:13:12.624Z,15.01
2022-11-19T10:14:47.817Z,15.05
2022-11-19T10:16:41.739Z,15.06
2022-11-19T10:18:29.143Z,15.08
2022-11-19T10:20:09.371Z,15.07
2022-11-19T10:22:04.713Z,15.08
2022-11-19T10:23:55.286Z,15.07
2022-11-19T10:25:33.352Z,15.10
2022-11-19T10:27:10.952Z,15.11
2022-11-19T10:29:03.608Z,15.15
2022-11-19T10:32:19.681Z,15.11
2022-11-19T10:34:01.442Z,15.17
2022-11-19T10:35:34.864Z,15.16
2022-11-19T10:37:09.310Z,15.20
2022-11-19T10:38:58.038Z,15.18
2022-11-19T10:40:40.501Z,15.15
2022-11-19T10:42:18.213Z,15.16
2022-11-19T10:43:56.458Z,15.12
2022-11-19T10:45:30.154Z,15.16
2022-11-19T10:47:02.493Z,15.22
2022-11-19T10:48:38.803Z,15.26
2022-11-19T10:50:18.173Z,15.26
2022-11-19T10:51:50.616Z,15.16
2022-11-19T10:53:25.559Z,15.20
2022-11-19T10:54:59.794Z,15.20
2022-11-19T10:56:36.677Z,15.14
2022-11-19T10:58:11.411Z,15.13
2022-11-19T10:59:43.615Z,15.11
2022-11-19T11:01:24.868Z,15.18
2022-11-19T11:03:03.475Z,15.20
2022-11-19T11:04:38.612Z,15.27
2022-11-19T11:06:11.435Z,15.28
2022-11-19T11:07:50.319Z,15.22
2022-11-19T11:09:39.246Z,15.26
2022-11-19T11:11:11.297Z,15.27
2022-11-19T11:13:01.766Z,15.26
2022-11-19T11:14:52.120Z,15.35
2022-11-19T11:16:31.587Z,15.44
2022-11-19T11:18:06.909Z,15.42
2022-11-19T11:19:39.083Z,15.43
2022-11-19T11:21:29.708Z,15.42
2022-11-19T11:23:04.731Z,15.44
2022-11-19T11:24:39.942Z,15.49
2022-11-19T11:26:12.663Z,15.47
2022-11-19T11:27:44.722Z,15.42
2022-11-19T11:29:16.642Z,15.46
2022-11-19T11:30:55.974Z,15.47
2022-11-19T11:32:29.271Z,15.45
2022-11-19T11:34:03.031Z,15.43
2022-11-19T11:35:36.473Z,15.42
2022-11-19T11:37:09.092Z,15.45
2022-11-19T11:38:46.888Z,15.45
2022-11-19T11:40:19.497Z,15.42
2022-11-19T11:42:05.407Z,15.42
2022-11-19T11:43:39.316Z,15.41
2022-11-19T11:45:17.210Z,15.47
2022-11-19T11:46:52.682Z,15.33
2022-11-19T11:48:24.717Z,15.37
2022-11-19T11:49:59.780Z,15.43
2022-11-19T11:51:35.756Z,15.35
2022-11-19T11:53:08.765Z,15.30
2022-11-19T11:54:56.014Z,15.31
2022-11-19T11:56:27.965Z,15.32
2022-11-19T11:58:01.310Z,15.30
2022-11-19T11:59:36.488Z,15.27
2022-11-19T12:01:15.984Z,15.20
2022-11-19T12:02:59.876Z,15.14
2022-11-19T12:06:11.908Z,15.12
2022-11-19T12:07:44.165Z,15.12
2022-11-19T12:09:19.384Z,15.17
2022-11-19T12:10:57.360Z,15.11
2022-11-19T12:12:29.282Z,15.14
2022-11-19T12:14:09.497Z,15.14
2022-11-19T12:15:51.882Z,15.18
2022-11-19T12:17:42.066Z,15.09
2022-11-19T12:19:14.191Z,15.07
2022-11-19T12:20:48.812Z,15.10
2022-11-19T12:22:36.100Z,15.16
2022-11-19T12:24:16.065Z,15.21
2022-11-19T12:26:13.042Z,15.23
2022-11-19T12:27:44.977Z,15.18
2022-11-19T12:29:17.216Z,15.13
2022-11-19T12:31:08.102Z,15.03
2022-11-19T12:32:39.991Z,15.04
2022-11-19T12:36:03.682Z,15.08
2022-11-19T12:37:44.912Z,15.16
2022-11-19T12:39:35.576Z,15.20
2022-11-19T12:41:14.443Z,15.14
2022-11-19T12:42:49.764Z,15.19
2022-11-19T12:44:29.268Z,15.15
2022-11-19T12:46:01.291Z,15.16
2022-11-19T12:47:45.243Z,15.06
2022-11-19T12:49:36.035Z,15.02
2022-11-19T12:51:08.223Z,14.99
2022-11-19T12:52:45.986Z,14.98
2022-11-19T12:54:33.382Z,14.96
2022-11-19T12:56:25.496Z,14.91
2022-11-19T12:57:57.460Z,14.93
2022-11-19T13:00:01.989Z,14.92
2022-11-19T13:01:34.988Z,14.87
2022-11-19T13:03:12.010Z,14.80
2022-11-19T13:04:45.261Z,14.72
2022-11-19T13:06:25.677Z,14.81
2022-11-19T13:08:16.442Z,14.78
2022-11-19T13:09:49.314Z,14.81
2022-11-19T13:11:36.719Z,14.77
2022-11-19T13:13:09.217Z,14.76
2022-11-19T13:14:41.908Z,14.76
2022-11-19T13:16:17.469Z,14.69
2022-11-19T13:17:50.887Z,14.61
2022-11-19T13:19:23.307Z,14.64
2022-11-19T13:21:04.950Z,14.63
2022-11-19T13:22:37.764Z,14.63
2022-11-19T13:24:28.702Z,14.62
2022-11-19T13:26:07.805Z,14.64
2022-11-19T13:27:39.957Z,14.63
2022-11-19T13:29:30.615Z,14.63
2022-11-19T13:31:04.452Z,14.55
2022-11-19T13:32:54.811Z,14.44
2022-11-19T13:34:28.504Z,14.46
2022-11-19T13:36:00.683Z,14.38
2022-11-19T13:39:13.901Z,14.45
2022-11-19T13:40:47.483Z,14.45
2022-11-19T13:42:37.985Z,14.35
2022-11-19T13:44:28.982Z,14.31
2022-11-19T13:46:18.238Z,14.37
2022-11-19T13:47:58.127Z,14.40
2022-11-19T13:49:34.104Z,14.37
2022-11-19T13:51:10.367Z,14.31
2022-11-19T13:52:47.377Z,14.29
2022-11-19T13:54:23.990Z,14.29
2022-11-19T13:55:56.382Z,14.33
2022-11-19T13:57:35.477Z,14.21
2022-11-19T13:59:07.461Z,14.25
2022-11-19T14:00:39.320Z,14.25
2022-11-19T14:02:11.339Z,14.30
2022-11-19T14:03:49.469Z,14.28
2022-11-19T14:05:30.713Z,14.31
2022-11-19T14:07:17.824Z,14.29
2022-11-19T14:09:08.591Z,14.31
2022-11-19T14:10:59.407Z,14.33
2022-11-19T14:12:49.896Z,14.32
2022-11-19T14:14:59.542Z,14.34
2022-11-19T14:16:49.814Z,14.35
2022-11-19T14:18:42.411Z,14.34
2022-11-19T14:20:56.341Z,14.35
2022-11-19T14:22:51.412Z,14.36
2022-11-19T14:24:44.791Z,14.36
2022-11-19T14:26:36.763Z,14.36
2022-11-19T14:28:40.983Z,14.37
2022-11-19T14:30:17.242Z,14.36
2022-11-19T14:32:01.307Z,14.35
2022-11-19T14:33:48.410Z,14.35
2022-11-19T14:35:23.376Z,14.32
2022-11-19T14:36:58.617Z,14.31
2022-11-19T14:38:34.925Z,14.28
2022-11-19T14:40:12.893Z,14.25
2022-11-19T14:41:45.381Z,14.24
2022-11-19T14:43:35.981Z,14.23
2022-11-19T14:45:07.980Z,14.23
2022-11-19T14:46:41.530Z,14.22
2022-11-19T14:48:13.505Z,14.22
2022-11-19T14:49:47.069Z,14.20
2022-11-19T14:51:37.284Z,14.18
2022-11-19T14:53:16.434Z,14.16
2022-11-19T14:54:53.417Z,14.11
2022-11-19T14:56:25.407Z,14.07
2022-11-19T14:58:06.534Z,14.04
2022-11-19T14:59:38.765Z,13.99
2022-11-19T15:01:15.461Z,13.95
2022-11-19T15:02:50.730Z,13.90
2022-11-19T15:04:23.404Z,13.87
2022-11-19T15:05:55.476Z,13.83
2022-11-19T15:07:33.553Z,13.81
2022-11-19T15:09:05.779Z,13.79
2022-11-19T15:10:58.095Z,13.74
2022-11-19T15:12:45.179Z,13.69
2022-11-19T15:14:38.596Z,13.64
2022-11-19T15:16:17.887Z,13.64
2022-11-19T15:17:51.061Z,13.61
2022-11-19T15:19:25.850Z,13.60
2022-11-19T15:21:02.609Z,13.61
2022-11-19T15:22:46.636Z,13.61
2022-11-19T15:24:37.203Z,13.59
2022-11-19T15:26:12.230Z,13.60
2022-11-19T15:27:46.882Z,13.60
2022-11-19T15:29:24.490Z,13.59
2022-11-19T15:31:15.713Z,13.56
2022-11-19T15:32:51.504Z,13.53
2022-11-19T15:34:23.566Z,13.52
2022-11-19T15:35:55.571Z,13.53
2022-11-19T15:39:12.964Z,13.51
2022-11-19T15:40:46.393Z,13.49
2022-11-19T15:42:22.353Z,13.47
2022-11-19T15:43:54.662Z,13.44
2022-11-19T15:45:26.579Z,13.42
2022-11-19T15:46:59.756Z,13.40
2022-11-19T15:48:51.998Z,13.36
2022-11-19T15:50:24.728Z,13.35
2022-11-19T15:52:07.199Z,13.33
2022-11-19T15:53:39.165Z,13.33
2022-11-19T15:55:21.127Z,13.33
2022-11-19T15:56:53.288Z,13.31
2022-11-19T15:58:26.596Z,13.29
2022-11-19T16:00:01.338Z,13.28
2022-11-19T16:01:33.654Z,13.28
2022-11-19T16:03:05.788Z,13.27
2022-11-19T16:04:38.268Z,13.23
2022-11-19T16:06:22.452Z,13.18
2022-11-19T16:07:54.576Z,13.14
2022-11-19T16:09:29.598Z,13.11
2022-11-19T16:11:20.880Z,13.08
2022-11-19T16:13:12.143Z,13.05
2022-11-19T16:15:07.819Z,13.03
2022-11-19T16:16:58.392Z,12.95
2022-11-19T16:18:30.695Z,12.89
2022-11-19T16:20:03.827Z,12.87
2022-11-19T16:21:38.095Z,12.88
2022-11-19T16:23:10.179Z,12.90
2022-11-19T16:25:00.873Z,12.88
2022-11-19T16:26:36.447Z,12.88
2022-11-19T16:28:11.160Z,12.87
2022-11-19T16:29:43.444Z,12.87
2022-11-19T16:31:15.688Z,12.86
2022-11-19T16:32:47.695Z,12.83
2022-11-19T16:34:41.130Z,12.83
2022-11-19T16:36:17.323Z,12.74
2022-11-19T16:37:49.455Z,12.74
2022-11-19T16:39:25.394Z,12.73
2022-11-19T16:41:16.043Z,12.70
2022-11-19T16:42:58.011Z,12.68
2022-11-19T16:44:30.235Z,12.66
2022-11-19T16:46:02.326Z,12.67
2022-11-19T16:47:34.300Z,12.63
2022-11-19T16:49:11.515Z,12.63
2022-11-19T16:50:46.651Z,12.62
2022-11-19T16:52:50.940Z,12.63
2022-11-19T16:54:41.729Z,12.60
2022-11-19T16:56:16.952Z,12.60
2022-11-19T16:58:02.159Z,12.59
2022-11-19T16:59:34.248Z,12.57
2022-11-19T17:01:06.337Z,12.55
2022-11-19T17:02:38.906Z,12.53
2022-11-19T17:04:12.563Z,12.50
2022-11-19T17:05:45.400Z,12.47
2022-11-19T17:07:26.863Z,12.44
2022-11-19T17:09:01.621Z,12.43
2022-11-19T17:12:28.308Z,12.43
2022-11-19T17:14:10.918Z,12.42
2022-11-19T17:15:46.939Z,12.39
2022-11-19T17:17:24.879Z,12.37
2022-11-19T17:18:57.091Z,12.38
2022-11-19T17:20:29.960Z,12.38
2022-11-19T17:22:03.376Z,12.37
2022-11-19T17:23:37.613Z,12.37
2022-11-19T17:25:13.543Z,12.31
2022-11-19T17:26:47.441Z,12.27
2022-11-19T17:28:26.261Z,12.23
2022-11-19T17:30:03.081Z,12.21
2022-11-19T17:31:35.283Z,12.19
2022-11-19T17:33:07.467Z,12.17
2022-11-19T17:34:44.662Z,12.16
2022-11-19T17:36:17.048Z,12.13
2022-11-19T17:37:49.193Z,12.10
2022-11-19T17:39:25.661Z,12.09
2022-11-19T17:40:58.790Z,12.04
2022-11-19T17:42:49.280Z,11.99
2022-11-19T17:44:37.751Z,11.94
2022-11-19T17:46:09.974Z,11.93
2022-11-19T17:47:42.178Z,11.92
2022-11-19T17:49:14.413Z,11.90
2022-11-19T17:50:46.817Z,11.89
2022-11-19T17:52:21.953Z,11.90
2022-11-19T17:53:54.956Z,11.90
2022-11-19T17:55:27.147Z,11.91
2022-11-19T17:56:59.434Z,11.92
2022-11-19T17:58:31.502Z,11.91
2022-11-19T18:00:03.900Z,11.91
2022-11-19T18:01:36.251Z,11.90
2022-11-19T18:03:11.900Z,11.89
2022-11-19T18:04:44.566Z,11.90
2022-11-19T18:06:16.974Z,11.88
2022-11-19T18:07:49.083Z,11.86
2022-11-19T18:09:21.207Z,11.82
2022-11-19T18:10:53.211Z,11.77
2022-11-19T18:12:25.274Z,11.71
2022-11-19T18:13:58.448Z,11.65
2022-11-19T18:15:31.439Z,11.58
2022-11-19T18:17:04.407Z,11.52
2022-11-19T18:18:38.997Z,11.50
2022-11-19T18:20:11.458Z,11.49
2022-11-19T18:21:43.679Z,11.50
2022-11-19T18:23:15.821Z,11.53
2022-11-19T18:24:48.718Z,11.53
2022-11-19T18:26:22.947Z,11.54
2022-11-19T18:27:55.094Z,11.54
2022-11-19T18:29:30.197Z,11.52
2022-11-19T18:31:02.195Z,11.47
2022-11-19T18:32:34.233Z,11.42
2022-11-19T18:34:06.342Z,11.41
2022-11-19T18:35:38.451Z,11.39
2022-11-19T18:37:10.886Z,11.38
2022-11-19T18:38:43.162Z,11.32
2022-11-19T18:40:15.640Z,11.25
2022-11-19T18:41:47.600Z,11.16
2022-11-19T18:43:40.065Z,11.11
2022-11-19T18:45:12.440Z,11.06
2022-11-19T18:46:44.758Z,11.05
2022-11-19T18:48:16.727Z,11.04
2022-11-19T18:49:48.836Z,11.03
2022-11-19T18:51:21.076Z,11.03
2022-11-19T18:52:53.294Z,11.03
2022-11-19T18:54:25.493Z,10.99
2022-11-19T18:55:57.627Z,10.93
2022-11-19T18:57:29.900Z,10.84
2022-11-19T18:59:04.933Z,10.77
2022-11-19T19:00:37.358Z,10.73
2022-11-19T19:02:10.046Z,10.70
2022-11-19T19:03:42.220Z,10.66
2022-11-19T19:05:14.501Z,10.60
2022-11-19T19:06:46.622Z,10.49
2022-11-19T19:08:18.583Z,10.44
2022-11-19T19:09:50.485Z,10.42
2022-11-19T19:11:41.111Z,10.41
2022-11-19T19:13:15.712Z,10.42
2022-11-19T19:14:48.715Z,10.39
2022-11-19T19:16:20.966Z,10.42
2022-11-19T19:17:52.840Z,10.44
2022-11-19T19:19:24.762Z,10.43
2022-11-19T19:20:56.599Z,10.33
2022-11-19T19:22:29.276Z,10.20
2022-11-19T19:24:01.340Z,10.06
2022-11-19T19:25:33.443Z,9.98
2022-11-19T19:27:05.914Z,9.91
2022-11-19T19:28:37.970Z,9.88
2022-11-19T19:30:10.307Z,9.89
2022-11-19T19:31:42.662Z,9.86
2022-11-19T19:33:14.844Z,9.87
2022-11-19T19:34:46.749Z,9.87
2022-11-19T19:36:19.197Z,9.86
2022-11-19T19:37:51.272Z,9.81
2022-11-19T19:39:23.479Z,9.80
2022-11-19T19:40:55.822Z,9.76
2022-11-19T19:42:28.927Z,9.80
2022-11-19T19:44:01.767Z,9.80
2022-11-19T19:45:35.122Z,9.76
2022-11-19T19:47:07.253Z,9.69
2022-11-19T19:48:39.316Z,9.63
2022-11-19T19:50:11.278Z,9.61
2022-11-19T19:51:43.197Z,9.58
2022-11-19T19:53:15.093Z,9.53
2022-11-19T19:54:46.997Z,9.46
2022-11-19T19:56:20.203Z,9.40
2022-11-19T19:57:52.209Z,9.40
2022-11-19T19:59:24.634Z,9.40
2022-11-19T20:01:02.939Z,9.44
2022-11-19T20:02:38.083Z,9.39
2022-11-19T20:04:11.183Z,9.39
2022-11-19T20:05:48.058Z,9.38
2022-11-19T20:07:20.116Z,9.35
2022-11-19T20:08:52.267Z,9.29
2022-11-19T20:10:24.405Z,9.27
2022-11-19T20:11:56.788Z,9.26
2022-11-19T20:13:29.028Z,9.23
2022-11-19T20:15:01.265Z,9.21
2022-11-19T20:16:33.722Z,9.16
2022-11-19T20:18:06.033Z,9.10
2022-11-19T20:19:38.117Z,9.05
2022-11-19T20:21:11.296Z,9.05
2022-11-19T20:22:43.477Z,9.04
2022-11-19T20:24:17.828Z,9.04
2022-11-19T20:25:49.648Z,9.00
2022-11-19T20:27:21.699Z,8.94
2022-11-19T20:29:03.128Z,8.87
2022-11-19T20:30:36.638Z,8.79
2022-11-19T20:32:08.627Z,8.67
2022-11-19T20:33:40.936Z,8.59
2022-11-19T20:35:12.990Z,8.53
2022-11-19T20:36:44.905Z,8.46
2022-11-19T20:38:17.852Z,8.45
2022-11-19T20:39:49.721Z,8.44
2022-11-19T20:41:40.775Z,8.41
2022-11-19T20:43:31.276Z,8.40
2022-11-19T20:45:03.277Z,8.41
2022-11-19T20:46:35.338Z,8.44
2022-11-19T20:48:07.368Z,8.47
2022-11-19T20:49:41.967Z,8.49
2022-11-19T20:51:16.529Z,8.51
2022-11-19T20:52:48.400Z,8.50
2022-11-19T20:54:20.706Z,8.48
2022-11-19T20:56:04.667Z,8.43
2022-11-19T20:57:37.294Z,8.40
2022-11-19T20:59:09.287Z,8.34
2022-11-19T21:00:41.290Z,8.31
2022-11-19T21:02:13.305Z,8.30
2022-11-19T21:03:45.359Z,8.26
2022-11-19T21:05:17.240Z,8.25
2022-11-19T21:06:50.197Z,8.28
2022-11-19T21:08:22.058Z,8.31
2022-11-19T21:09:53.998Z,8.36
2022-11-19T21:11:25.972Z,8.37
2022-11-19T21:13:03.750Z,8.39
2022-11-19T21:14:35.792Z,8.39
2022-11-19T21:16:07.647Z,8.36
2022-11-19T21:17:39.540Z,8.32
2022-11-19T21:19:11.668Z,8.34
2022-11-19T21:20:43.561Z,8.32
2022-11-19T21:22:15.566Z,8.32
2022-11-19T21:23:47.611Z,8.32
2022-11-19T21:25:19.548Z,8.29
2022-11-19T21:26:51.480Z,8.25
2022-11-19T21:28:23.391Z,8.23
2022-11-19T21:29:55.758Z,8.21
2022-11-19T21:31:48.977Z,8.20
2022-11-19T21:33:21.083Z,8.17
2022-11-19T21:34:53.206Z,8.11
2022-11-19T21:36:25.076Z,8.05
2022-11-19T21:37:56.927Z,8.02
2022-11-19T21:39:28.801Z,8.02
2022-11-19T21:41:00.811Z,8.03
2022-11-19T21:42:32.598Z,8.01
2022-11-19T21:44:04.904Z,7.95
2022-11-19T21:45:42.702Z,7.95
2022-11-19T21:48:54.374Z,8.00
2022-11-19T21:50:26.446Z,7.99
2022-11-19T21:51:58.435Z,7.99
2022-11-19T21:53:30.364Z,8.00
2022-11-19T21:55:02.272Z,8.03
2022-11-19T21:56:38.511Z,8.00